createdAt,value
2023-02-25T00:00:25.714Z,86.09
2023-02-25T00:02:55.507Z,85.06
2023-02-25T00:05:25.778Z,85.91
2023-02-25T00:07:56.577Z,86.04
2023-02-25T00:10:26.002Z,86.20
2023-02-25T00:13:00.729Z,85.47
2023-02-25T00:15:35.727Z,84.69
2023-02-25T00:18:05.568Z,85.69
2023-02-25T00:20:36.905Z,86.02
2023-02-25T00:23:06.357Z,86.86
2023-02-25T00:25:36.193Z,85.97
2023-02-25T00:28:07.266Z,86.75
2023-02-25T00:30:39.363Z,87.20
2023-02-25T00:33:08.683Z,85.89
2023-02-25T00:35:42.315Z,85.48
2023-02-25T00:38:16.067Z,85.80
2023-02-25T00:40:48.665Z,86.36
2023-02-25T00:43:18.132Z,86.01
2023-02-25T00:45:48.203Z,87.16
2023-02-25T00:48:17.511Z,87.08
2023-02-25T00:50:46.945Z,87.51
2023-02-25T00:53:19.040Z,87.26
2023-02-25T00:55:48.344Z,85.73
2023-02-25T00:58:18.178Z,88.09
2023-02-25T01:00:52.094Z,87.85
2023-02-25T01:03:22.721Z,87.01
2023-02-25T01:05:52.478Z,88.28
2023-02-25T01:08:22.572Z,88.57
2023-02-25T01:10:51.932Z,87.67
2023-02-25T01:13:22.249Z,88.52
2023-02-25T01:15:52.073Z,88.39
2023-02-25T01:18:21.664Z,89.04
2023-02-25T01:20:51.031Z,87.40
2023-02-25T01:23:22.554Z,84.82
2023-02-25T01:25:52.198Z,87.29
2023-02-25T01:28:22.989Z,88.26
2023-02-25T01:30:53.690Z,86.49
2023-02-25T01:33:23.092Z,87.96
2023-02-25T01:35:53.169Z,87.67
2023-02-25T01:38:22.731Z,86.93
2023-02-25T01:40:59.944Z,87.97
2023-02-25T01:43:29.873Z,88.67
2023-02-25T01:46:00.162Z,87.63
2023-02-25T01:48:34.483Z,88.13
2023-02-25T01:51:10.769Z,88.92
2023-02-25T01:53:46.432Z,89.07
2023-02-25T01:56:21.679Z,86.98
2023-02-25T01:58:51.298Z,86.45
2023-02-25T02:01:25.193Z,87.17
2023-02-25T02:03:55.879Z,88.28
2023-02-25T02:06:31.105Z,88.46
2023-02-25T02:09:02.686Z,87.61
2023-02-25T02:11:32.168Z,88.43
2023-02-25T02:14:05.664Z,87.57
2023-02-25T02:16:56.391Z,88.62
2023-02-25T02:19:33.830Z,88.26
2023-02-25T02:22:32.319Z,88.05
2023-02-25T02:25:41.361Z,87.10
2023-02-25T02:28:40.913Z,86.89
2023-02-25T02:31:26.417Z,86.23
2023-02-25T02:34:09.843Z,85.85
2023-02-25T02:37:18.625Z,85.77
2023-02-25T02:39:56.441Z,86.92
2023-02-25T02:42:40.367Z,86.78
2023-02-25T02:45:35.488Z,86.29
2023-02-25T02:48:14.027Z,86.03
2023-02-25T02:50:49.222Z,86.15
2023-02-25T02:53:32.960Z,85.26
2023-02-25T02:56:05.457Z,86.64
2023-02-25T02:58:39.532Z,86.22
2023-02-25T03:01:33.627Z,85.47
2023-02-25T03:04:09.103Z,84.30
2023-02-25T03:06:43.765Z,85.04
2023-02-25T03:09:20.377Z,85.48
2023-02-25T03:11:53.622Z,84.66
2023-02-25T03:14:23.744Z,85.58
2023-02-25T03:17:02.331Z,83.82
2023-02-25T03:19:43.603Z,84.34
2023-02-25T03:22:16.786Z,84.17
2023-02-25T03:25:09.990Z,85.16
2023-02-25T03:27:43.491Z,86.28
2023-02-25T03:30:26.247Z,84.77
2023-02-25T03:33:05.317Z,85.45
2023-02-25T03:35:38.634Z,85.45
2023-02-25T03:38:15.597Z,85.95
2023-02-25T03:40:49.695Z,84.99
2023-02-25T03:43:26.898Z,84.67
2023-02-25T03:45:59.342Z,84.32
2023-02-25T03:48:31.381Z,85.83
2023-02-25T03:51:05.139Z,85.79
2023-02-25T03:53:36.628Z,85.67
2023-02-25T03:56:11.091Z,85.73
2023-02-25T03:58:42.801Z,85.64
2023-02-25T04:01:20.359Z,85.54
2023-02-25T04:03:50.285Z,86.63
2023-02-25T04:06:23.932Z,86.68
2023-02-25T04:08:54.301Z,87.33
2023-02-25T04:11:24.606Z,85.94
2023-02-25T04:13:56.838Z,85.60
2023-02-25T04:16:27.500Z,85.11
2023-02-25T04:19:00.152Z,85.64
2023-02-25T04:21:36.624Z,87.50
2023-02-25T04:24:07.893Z,87.93
2023-02-25T04:26:38.293Z,88.12
2023-02-25T04:29:07.938Z,86.51
2023-02-25T04:31:37.533Z,87.77
2023-02-25T04:34:07.051Z,87.44
2023-02-25T04:36:40.563Z,86.95
2023-02-25T04:39:09.480Z,87.35
2023-02-25T04:41:42.865Z,88.08
2023-02-25T04:44:13.760Z,85.83
2023-02-25T04:46:45.642Z,88.55
2023-02-25T04:49:15.299Z,88.93
2023-02-25T04:51:45.312Z,89.15
2023-02-25T04:54:14.832Z,89.61
2023-02-25T04:56:44.173Z,88.79
2023-02-25T04:59:17.095Z,88.14
2023-02-25T05:01:47.722Z,89.10
2023-02-25T05:04:17.616Z,88.72
2023-02-25T05:06:46.882Z,88.70
2023-02-25T05:09:16.412Z,88.78
2023-02-25T05:11:46.760Z,87.69
2023-02-25T05:14:16.368Z,86.67
2023-02-25T05:16:46.511Z,88.07
2023-02-25T05:19:18.779Z,88.10
2023-02-25T05:21:48.902Z,87.12
2023-02-25T05:24:18.356Z,86.62
2023-02-25T05:26:47.813Z,84.29
2023-02-25T05:29:18.160Z,87.66
2023-02-25T05:31:50.327Z,88.56
2023-02-25T05:34:20.036Z,87.75
2023-02-25T05:36:53.318Z,88.09
2023-02-25T05:39:23.765Z,85.33
2023-02-25T05:41:53.001Z,85.32
2023-02-25T05:44:22.973Z,87.25
2023-02-25T05:46:52.182Z,83.45
2023-02-25T05:49:22.320Z,86.54
2023-02-25T05:51:53.141Z,84.02
2023-02-25T05:54:23.328Z,87.12
2023-02-25T05:56:56.719Z,86.60
2023-02-25T05:59:29.477Z,85.52
2023-02-25T06:02:08.005Z,86.09
2023-02-25T06:04:38.723Z,86.64
2023-02-25T06:07:08.350Z,85.46
2023-02-25T06:09:39.727Z,84.67
2023-02-25T06:12:09.750Z,86.18
2023-02-25T06:14:39.510Z,84.06
2023-02-25T06:17:10.222Z,82.57
2023-02-25T06:19:41.061Z,85.64
2023-02-25T06:22:10.736Z,85.62
2023-02-25T06:24:42.016Z,85.89
2023-02-25T06:27:11.856Z,83.34
2023-02-25T06:29:49.544Z,84.72
2023-02-25T06:32:20.581Z,85.37
2023-02-25T06:34:50.703Z,84.99
2023-02-25T06:37:20.207Z,84.87
2023-02-25T06:39:50.829Z,84.47
2023-02-25T06:42:20.840Z,84.47
2023-02-25T06:44:50.058Z,84.05
2023-02-25T06:47:19.735Z,83.92
2023-02-25T06:49:52.326Z,83.81
2023-02-25T06:52:22.575Z,84.24
2023-02-25T06:54:55.835Z,84.35
2023-02-25T06:57:25.619Z,84.32
2023-02-25T06:59:56.710Z,84.14
2023-02-25T07:02:26.420Z,83.62
2023-02-25T07:04:58.322Z,83.51
2023-02-25T07:07:28.178Z,83.47
2023-02-25T07:09:58.972Z,83.07
2023-02-25T07:12:29.845Z,82.78
2023-02-25T07:15:01.075Z,82.25
2023-02-25T07:17:31.991Z,82.21
2023-02-25T07:20:02.119Z,81.89
2023-02-25T07:22:34.885Z,80.95
2023-02-25T07:25:07.351Z,81.61
2023-02-25T07:27:36.652Z,81.72
2023-02-25T07:30:07.049Z,81.58
2023-02-25T07:32:36.746Z,81.85
2023-02-25T07:35:07.855Z,82.44
2023-02-25T07:37:38.317Z,81.68
2023-02-25T07:40:18.068Z,80.02
2023-02-25T07:42:48.627Z,80.95
2023-02-25T07:45:18.638Z,81.28
2023-02-25T07:47:48.048Z,81.20
2023-02-25T07:50:19.208Z,80.91
2023-02-25T07:52:49.183Z,81.28
2023-02-25T07:55:19.495Z,81.57
2023-02-25T07:57:49.010Z,81.49
2023-02-25T08:00:19.169Z,81.42
2023-02-25T08:02:54.746Z,81.42
2023-02-25T08:05:27.082Z,81.62
2023-02-25T08:08:00.348Z,80.76
2023-02-25T08:10:29.696Z,81.22
2023-02-25T08:12:59.446Z,81.05
2023-02-25T08:15:29.391Z,81.55
2023-02-25T08:17:59.785Z,81.33
2023-02-25T08:20:30.063Z,81.01
2023-02-25T08:22:59.952Z,81.22
2023-02-25T08:25:30.147Z,80.93
2023-02-25T08:28:00.285Z,80.38
2023-02-25T08:30:30.826Z,80.44
2023-02-25T08:33:03.402Z,80.40
2023-02-25T08:35:36.442Z,79.75
2023-02-25T08:38:06.324Z,79.25
2023-02-25T08:40:36.462Z,79.64
2023-02-25T08:43:05.924Z,79.46
2023-02-25T08:45:37.654Z,79.64
2023-02-25T08:48:07.432Z,79.87
2023-02-25T08:50:37.519Z,79.87
2023-02-25T08:53:09.562Z,79.60
2023-02-25T08:55:40.824Z,77.36
2023-02-25T08:58:12.432Z,79.58
2023-02-25T09:00:46.017Z,79.06
2023-02-25T09:03:15.425Z,78.26
2023-02-25T09:05:51.641Z,76.88
2023-02-25T09:08:21.105Z,76.81
2023-02-25T09:10:51.381Z,75.48
2023-02-25T09:13:21.545Z,75.65
2023-02-25T09:16:00.702Z,75.89
2023-02-25T09:18:31.897Z,75.53
2023-02-25T09:21:02.391Z,75.91
2023-02-25T09:23:32.729Z,76.58
2023-02-25T09:26:05.548Z,76.89
2023-02-25T09:28:35.688Z,77.27
2023-02-25T09:31:08.120Z,78.32
2023-02-25T09:33:39.391Z,78.69
2023-02-25T09:36:13.791Z,79.86
2023-02-25T09:38:44.991Z,80.20
2023-02-25T09:41:42.952Z,81.09
2023-02-25T09:44:18.033Z,78.52
2023-02-25T09:46:54.386Z,82.37
2023-02-25T09:49:34.917Z,81.96
2023-02-25T09:52:19.961Z,82.17
2023-02-25T09:54:58.341Z,82.19
2023-02-25T09:57:30.413Z,81.96
2023-02-25T10:00:01.102Z,81.76
2023-02-25T10:02:41.695Z,81.73
2023-02-25T10:05:40.170Z,81.68
2023-02-25T10:08:27.440Z,81.65
2023-02-25T10:11:11.191Z,81.26
2023-02-25T10:13:57.775Z,82.35
2023-02-25T10:16:39.196Z,82.46
2023-02-25T10:19:12.002Z,82.59
2023-02-25T10:21:52.900Z,82.41
2023-02-25T10:24:30.282Z,82.05
2023-02-25T10:27:16.184Z,82.89
2023-02-25T10:29:50.429Z,82.47
2023-02-25T10:32:26.533Z,82.65
2023-02-25T10:35:00.671Z,81.74
2023-02-25T10:37:40.765Z,82.28
2023-02-25T10:40:18.186Z,82.41
2023-02-25T10:42:50.777Z,81.88
2023-02-25T10:45:25.953Z,82.17
2023-02-25T10:48:15.709Z,82.45
2023-02-25T10:51:01.817Z,82.14
2023-02-25T10:53:33.770Z,82.46
2023-02-25T10:56:04.378Z,82.66
2023-02-25T10:58:47.473Z,82.67
2023-02-25T11:01:22.855Z,82.48
2023-02-25T11:04:03.532Z,82.38
2023-02-25T11:06:36.692Z,82.25
2023-02-25T11:09:28.973Z,81.71
2023-02-25T11:12:02.216Z,81.54
2023-02-25T11:14:34.517Z,81.06
2023-02-25T11:17:16.013Z,81.32
2023-02-25T11:19:50.633Z,81.19
2023-02-25T11:22:28.157Z,80.28
2023-02-25T11:25:02.020Z,79.49
2023-02-25T11:27:39.513Z,79.28
2023-02-25T11:30:26.474Z,79.38
2023-02-25T11:32:58.639Z,79.08
2023-02-25T11:35:32.468Z,79.31
2023-02-25T11:38:16.871Z,79.51
2023-02-25T11:40:46.889Z,79.64
2023-02-25T11:43:20.195Z,80.35
2023-02-25T11:45:59.360Z,80.79
2023-02-25T11:48:41.518Z,81.06
2023-02-25T11:51:31.006Z,81.34
2023-02-25T11:54:29.937Z,81.63
2023-02-25T11:57:18.745Z,81.46
2023-02-25T12:00:20.136Z,81.66
2023-02-25T12:03:24.283Z,82.31
2023-02-25T12:06:13.758Z,82.19
2023-02-25T12:09:10.691Z,82.18
2023-02-25T12:12:11.248Z,82.20
2023-02-25T12:15:20.460Z,82.82
2023-02-25T12:18:20.453Z,80.44
2023-02-25T12:21:11.024Z,83.55
2023-02-25T12:24:16.359Z,81.61
2023-02-25T12:27:06.957Z,80.76
2023-02-25T12:30:09.244Z,83.59
2023-02-25T12:33:18.016Z,83.41
2023-02-25T12:36:00.998Z,83.51
2023-02-25T12:38:42.162Z,84.45
2023-02-25T12:41:32.653Z,84.73
2023-02-25T12:44:25.625Z,84.96
2023-02-25T12:47:03.784Z,85.25
2023-02-25T12:49:55.566Z,85.43
2023-02-25T12:52:36.190Z,85.46
2023-02-25T12:55:26.658Z,85.69
2023-02-25T12:58:20.776Z,85.64
2023-02-25T13:01:04.582Z,85.83
2023-02-25T13:04:13.208Z,85.96
2023-02-25T13:07:23.560Z,86.22
2023-02-25T13:10:04.819Z,86.73
2023-02-25T13:12:50.233Z,86.51
2023-02-25T13:15:34.564Z,86.51
2023-02-25T13:18:28.722Z,85.15
2023-02-25T13:21:07.801Z,84.97
2023-02-25T13:23:50.550Z,86.82
2023-02-25T13:26:46.757Z,84.90
2023-02-25T13:29:35.762Z,84.52
2023-02-25T13:32:33.857Z,84.59
2023-02-25T13:35:35.300Z,87.34
2023-02-25T13:38:25.139Z,86.37
2023-02-25T13:41:01.776Z,85.19
2023-02-25T13:43:59.967Z,85.54
2023-02-25T13:46:35.814Z,86.85
2023-02-25T13:49:19.341Z,86.89
2023-02-25T13:52:22.029Z,86.39
2023-02-25T13:54:59.852Z,86.04
2023-02-25T13:58:03.237Z,85.22
2023-02-25T14:01:11.745Z,85.90
2023-02-25T14:04:21.309Z,86.37
2023-02-25T14:07:13.872Z,87.34
2023-02-25T14:09:57.334Z,88.04
2023-02-25T14:13:18.442Z,88.23
2023-02-25T14:16:10.548Z,86.35
2023-02-25T14:18:56.968Z,87.38
2023-02-25T14:21:51.968Z,88.01
2023-02-25T14:24:34.214Z,86.36
2023-02-25T14:27:25.875Z,87.78
2023-02-25T14:30:16.468Z,87.09
2023-02-25T14:33:13.455Z,88.45
2023-02-25T14:35:57.363Z,88.54
2023-02-25T14:38:56.309Z,88.24
2023-02-25T14:42:16.858Z,88.24
2023-02-25T14:44:58.796Z,88.81
2023-02-25T14:47:47.613Z,86.83
2023-02-25T14:50:34.210Z,88.41
2023-02-25T14:53:42.912Z,88.48
2023-02-25T14:56:47.087Z,88.81
2023-02-25T14:59:35.945Z,89.67
2023-02-25T15:02:38.551Z,90.82
2023-02-25T15:05:34.824Z,90.49
2023-02-25T15:08:19.765Z,89.65
2023-02-25T15:11:05.561Z,88.59
2023-02-25T15:14:12.169Z,88.74
2023-02-25T15:17:01.022Z,88.93
2023-02-25T15:20:06.898Z,89.28
2023-02-25T15:22:38.568Z,87.78
2023-02-25T15:25:36.491Z,90.14
2023-02-25T15:28:35.264Z,90.85
2023-02-25T15:31:31.647Z,90.78
2023-02-25T15:34:34.248Z,90.43
2023-02-25T15:37:28.823Z,89.91
2023-02-25T15:40:04.281Z,87.69
2023-02-25T15:42:53.906Z,89.63
2023-02-25T15:45:39.342Z,89.07
2023-02-25T15:48:31.593Z,88.79
2023-02-25T15:51:02.726Z,87.94
2023-02-25T15:53:45.804Z,87.48
2023-02-25T15:56:32.224Z,88.00
2023-02-25T15:59:06.351Z,87.96
2023-02-25T16:01:43.300Z,88.10
2023-02-25T16:04:51.085Z,88.26
2023-02-25T16:07:25.286Z,88.17
2023-02-25T16:10:02.997Z,88.72
2023-02-25T16:12:34.229Z,88.43
2023-02-25T16:15:08.204Z,89.06
2023-02-25T16:17:39.465Z,88.68
2023-02-25T16:20:25.022Z,88.83
2023-02-25T16:23:00.408Z,88.38
2023-02-25T16:25:43.319Z,88.61
2023-02-25T16:28:46.248Z,89.17
2023-02-25T16:31:34.405Z,89.00
2023-02-25T16:34:12.658Z,88.27
2023-02-25T16:37:02.545Z,88.63
2023-02-25T16:39:41.838Z,88.75
2023-02-25T16:42:15.633Z,89.82
2023-02-25T16:44:57.131Z,89.04
2023-02-25T16:47:32.205Z,89.20
2023-02-25T16:50:08.540Z,88.49
2023-02-25T16:52:46.923Z,88.78
2023-02-25T16:55:25.051Z,89.34
2023-02-25T16:58:25.320Z,89.98
2023-02-25T17:01:02.074Z,89.05
2023-02-25T17:03:43.943Z,90.34
2023-02-25T17:06:32.914Z,89.43
2023-02-25T17:09:30.834Z,89.49
2023-02-25T17:12:06.504Z,89.65
2023-02-25T17:14:40.411Z,89.83
2023-02-25T17:17:44.941Z,90.14
2023-02-25T17:20:27.705Z,90.05
2023-02-25T17:23:01.373Z,89.20
2023-02-25T17:25:53.490Z,89.67
2023-02-25T17:28:28.061Z,88.55
2023-02-25T17:31:10.547Z,88.82
2023-02-25T17:33:55.591Z,89.10
2023-02-25T17:36:30.269Z,88.93
2023-02-25T17:39:20.518Z,89.42
2023-02-25T17:41:52.149Z,89.20
2023-02-25T17:44:46.150Z,89.02
2023-02-25T17:47:24.427Z,89.13
2023-02-25T17:49:56.270Z,89.18
2023-02-25T17:52:33.300Z,89.20
2023-02-25T17:55:07.309Z,89.47
2023-02-25T17:57:44.394Z,89.57
2023-02-25T18:00:30.207Z,89.23
2023-02-25T18:03:19.694Z,89.49
2023-02-25T18:06:00.913Z,89.55
2023-02-25T18:08:33.045Z,89.26
2023-02-25T18:11:19.771Z,89.63
2023-02-25T18:13:54.041Z,89.77
2023-02-25T18:16:42.962Z,89.44
2023-02-25T18:19:35.079Z,89.47
2023-02-25T18:22:06.790Z,89.64
2023-02-25T18:24:40.624Z,90.03
2023-02-25T18:27:25.429Z,89.78
2023-02-25T18:30:00.668Z,89.66
2023-02-25T18:32:48.241Z,90.04
2023-02-25T18:35:19.700Z,91.17
2023-02-25T18:37:52.481Z,91.31
2023-02-25T18:40:40.482Z,90.59
2023-02-25T18:43:21.004Z,89.81
2023-02-25T18:45:52.340Z,90.44
2023-02-25T18:48:24.116Z,89.98
2023-02-25T18:50:57.326Z,89.87
2023-02-25T18:53:28.222Z,89.96
2023-02-25T18:55:59.412Z,90.25
2023-02-25T18:58:30.513Z,90.26
2023-02-25T19:01:05.396Z,90.73
2023-02-25T19:03:42.379Z,90.33
2023-02-25T19:06:12.740Z,91.07
2023-02-25T19:08:42.248Z,90.31
2023-02-25T19:11:23.774Z,89.78
2023-02-25T19:13:53.896Z,90.40
2023-02-25T19:16:25.683Z,90.08
2023-02-25T19:18:55.618Z,90.42
2023-02-25T19:21:26.977Z,90.22
2023-02-25T19:23:56.632Z,90.42
2023-02-25T19:26:30.328Z,91.32
2023-02-25T19:29:01.988Z,90.95
2023-02-25T19:31:32.199Z,90.23
2023-02-25T19:34:04.270Z,90.06
2023-02-25T19:36:37.422Z,90.19
2023-02-25T19:39:07.425Z,90.76
2023-02-25T19:41:39.045Z,90.76
2023-02-25T19:44:10.866Z,90.97
2023-02-25T19:46:40.820Z,90.80
2023-02-25T19:49:10.112Z,90.22
2023-02-25T19:51:41.291Z,91.19
2023-02-25T19:54:11.906Z,90.47
2023-02-25T19:56:41.842Z,91.12
2023-02-25T19:59:12.866Z,90.35
2023-02-25T20:01:42.934Z,90.57
2023-02-25T20:04:21.646Z,90.43
2023-02-25T20:06:51.282Z,90.41
2023-02-25T20:09:22.369Z,90.54
2023-02-25T20:11:53.820Z,90.36
2023-02-25T20:14:24.659Z,91.02
2023-02-25T20:16:54.493Z,90.30
2023-02-25T20:19:28.569Z,90.07
2023-02-25T20:22:02.206Z,90.06
2023-02-25T20:24:32.686Z,90.96
2023-02-25T20:27:03.761Z,90.64
2023-02-25T20:29:33.844Z,90.58
2023-02-25T20:32:03.888Z,90.15
2023-02-25T20:34:36.889Z,90.23
2023-02-25T20:37:13.949Z,90.31
2023-02-25T20:39:50.424Z,90.68
2023-02-25T20:42:22.932Z,90.54
2023-02-25T20:44:53.104Z,90.74
2023-02-25T20:47:25.099Z,90.96
2023-02-25T20:49:58.026Z,90.72
2023-02-25T20:52:30.040Z,90.52
2023-02-25T20:55:01.297Z,90.95
2023-02-25T20:57:32.533Z,90.57
2023-02-25T21:00:02.560Z,90.65
2023-02-25T21:02:36.177Z,90.77
2023-02-25T21:05:09.898Z,91.19
2023-02-25T21:07:40.659Z,90.87
2023-02-25T21:10:11.570Z,91.55
2023-02-25T21:12:41.385Z,90.71
2023-02-25T21:15:12.031Z,91.00
2023-02-25T21:17:41.181Z,90.77
2023-02-25T21:20:12.341Z,90.98
2023-02-25T21:22:41.833Z,90.78
2023-02-25T21:25:11.863Z,91.54
2023-02-25T21:27:41.274Z,90.65
2023-02-25T21:30:11.817Z,90.88
2023-02-25T21:32:41.350Z,90.78
2023-02-25T21:35:11.376Z,90.91
2023-02-25T21:37:40.503Z,91.37
2023-02-25T21:40:11.095Z,90.88
2023-02-25T21:42:40.841Z,90.93
2023-02-25T21:45:11.379Z,90.67
2023-02-25T21:47:40.705Z,90.76
2023-02-25T21:50:11.325Z,90.78
2023-02-25T21:52:41.205Z,90.65
2023-02-25T21:55:11.720Z,90.87
2023-02-25T21:57:41.567Z,91.14
2023-02-25T22:00:12.072Z,90.83
2023-02-25T22:02:43.637Z,90.72
2023-02-25T22:05:12.900Z,90.64
2023-02-25T22:07:42.797Z,90.79
2023-02-25T22:10:13.035Z,90.84
2023-02-25T22:12:50.288Z,90.68
2023-02-25T22:15:19.582Z,91.29
2023-02-25T22:17:49.242Z,90.53
2023-02-25T22:20:18.916Z,90.59
2023-02-25T22:22:49.698Z,90.80
2023-02-25T22:25:20.254Z,90.75
2023-02-25T22:27:50.227Z,91.59
2023-02-25T22:30:19.917Z,90.66
2023-02-25T22:32:50.010Z,91.26
2023-02-25T22:35:19.405Z,91.08
2023-02-25T22:37:49.688Z,91.22
2023-02-25T22:40:18.844Z,91.07
2023-02-25T22:42:49.838Z,90.49
2023-02-25T22:45:19.111Z,90.75
2023-02-25T22:47:48.596Z,90.75
2023-02-25T22:50:18.765Z,90.56
2023-02-25T22:52:49.009Z,90.76
2023-02-25T22:55:20.914Z,91.02
2023-02-25T22:57:50.307Z,90.73
2023-02-25T23:00:21.420Z,90.75
2023-02-25T23:02:50.870Z,90.59
2023-02-25T23:05:20.502Z,90.83
2023-02-25T23:07:51.338Z,90.67
2023-02-25T23:10:21.241Z,90.63
2023-02-25T23:12:50.992Z,90.76
2023-02-25T23:15:20.764Z,91.25
2023-02-25T23:17:49.925Z,91.20
2023-02-25T23:20:19.716Z,90.99
2023-02-25T23:22:51.780Z,90.96
2023-02-25T23:25:21.536Z,90.73
2023-02-25T23:27:52.036Z,91.15
2023-02-25T23:30:21.428Z,91.08
2023-02-25T23:32:51.346Z,91.23
2023-02-25T23:35:20.807Z,91.09
2023-02-25T23:37:50.760Z,91.05
2023-02-25T23:40:20.297Z,90.67
2023-02-25T23:42:49.540Z,90.72
2023-02-25T23:45:19.691Z,90.92
2023-02-25T23:47:49.615Z,91.06
2023-02-25T23:50:22.181Z,90.75
2023-02-25T23:52:51.440Z,90.77
2023-02-25T23:55:22.587Z,90.77
2023-02-25T23:57:52.528Z,90.73
